Terminal Aerodrome Forecast
Issued by NWS

Home | Current Version | Previous Version | Text Only | Print | Product List | Glossary On
Versions: 1 2 3 4 5 6 7 8 9 10 11 12 13 14 15 16 17 18 19 20 21 22 23
000
FTUS41 KILN 272300
TAFLUK
TAF
KLUK 272338Z 2800/2824 28010KT P6SM VCSH SCT028 OVC040
      TEMPO 2802/2806 5SM -SHSN OVC028
     FM281300 19007KT P6SM SCT028 BKN100=

USA.gov is the U.S. government's official web portal to all federal, state and local government web resources and services.